Aiea, Hawaii
Current Conditions -  °F | °C
As of 8:53 PM on Friday 28 Nov 2014 (Local Time) from PHNL Reporting Station
Light Rain Light Rain  
Wind Chill: 75°   Ceiling: 4100
Heat Index: 75°   Visibility: 10mi
Dew Point: 64°   Wind: 16mph
Humidity: 69%   Direction: 50°NE
Pressure: 30.04"   Gusts: NA
Location:  21.38°N, 157.93°W
Report Text: PHNL 290653Z 05014KT 10SM -RA SCT022 BKN041 BKN050 24/18 A3004 RMK AO2 RAB30 SLP172 P0000 T02390178
Loading
Personal Weather Stations






























Interactive Weather Map New forecast layout! Learn more

10-Day Weather Forecast

Advertisements
Track Severe Weather on mobile